Time;durP1;ratioP1;P1;durP2;ratioP2;P2;SDS_P1;SDS_P2;PMS_P1;PMS_P2;Temp;Humidity;BMP_temperature;BMP_pressure;BME280_temperature;BME280_humidity;BME280_pressure;Samples;Min_cycle;Max_cycle;Signal;HPM_P1;HPM_P2
2021/06/03 00:01:52;;;;;;;4.65;1.88;;;19.20;66.30;;;;;;5097105;28;20036;-83
2021/06/03 00:04:18;;;;;;;3.90;1.92;;;19.10;66.50;;;;;;5081743;28;20106;-83
2021/06/03 00:06:44;;;;;;;4.13;1.70;;;19.20;66.90;;;;;;5082631;28;20028;-84
2021/06/03 00:09:10;;;;;;;4.55;1.98;;;19.20;67.30;;;;;;5082307;28;20040;-84
2021/06/03 00:11:36;;;;;;;5.10;2.30;;;19.20;67.50;;;;;;5082260;28;20025;-84
2021/06/03 00:14:02;;;;;;;3.70;2.13;;;19.10;67.30;;;;;;5079362;28;20452;-83
2021/06/03 00:16:33;;;;;;;4.95;2.30;;;19.30;67.30;;;;;;5097395;28;20489;-83
2021/06/03 00:19:09;;;;;;;4.15;2.08;;;19.10;67.40;;;;;;5096230;28;20050;-83
2021/06/03 00:21:36;;;;;;;3.30;1.60;;;19.00;68.00;;;;;;5081311;28;20029;-83
2021/06/03 00:24:05;;;;;;;3.47;1.73;;;18.80;68.90;;;;;;5084488;28;20721;-83
2021/06/03 00:26:31;;;;;;;4.40;2.00;;;18.70;69.60;;;;;;5096204;28;20020;-83
2021/06/03 00:28:57;;;;;;;3.78;1.73;;;18.60;69.80;;;;;;5097450;28;20501;-83
2021/06/03 00:31:22;;;;;;;4.35;1.80;;;18.60;70.00;;;;;;5080380;28;20044;-84
2021/06/03 00:33:48;;;;;;;6.78;2.45;;;18.50;70.10;;;;;;5089381;28;20036;-83
2021/06/03 00:36:14;;;;;;;4.43;1.92;;;18.50;70.30;;;;;;5100077;28;20039;-82
2021/06/03 00:38:40;;;;;;;6.28;2.15;;;18.50;70.60;;;;;;5097259;28;20020;-83
2021/06/03 00:41:07;;;;;;;5.38;2.28;;;18.50;70.80;;;;;;5096931;28;20021;-84
2021/06/03 00:43:34;;;;;;;6.18;2.00;;;18.50;70.80;;;;;;5099675;28;20046;-83
2021/06/03 00:46:00;;;;;;;4.75;1.77;;;18.40;71.60;;;;;;5092605;28;20064;-83
2021/06/03 00:48:26;;;;;;;4.93;1.90;;;18.40;71.70;;;;;;5099927;28;20032;-83
2021/06/03 00:50:54;;;;;;;3.95;2.00;;;18.30;72.10;;;;;;5099708;28;20049;-83
2021/06/03 00:53:20;;;;;;;4.25;1.95;;;18.30;72.40;;;;;;5096315;28;20028;-83
2021/06/03 00:55:51;;;;;;;4.38;2.15;;;18.20;72.60;;;;;;5080177;28;20047;-84
2021/06/03 00:58:17;;;;;;;4.03;1.80;;;18.20;73.10;;;;;;5079663;28;20028;-83
2021/06/03 01:00:43;;;;;;;5.18;2.35;;;18.10;73.50;;;;;;5080839;28;20025;-83
2021/06/03 01:03:10;;;;;;;3.15;2.00;;;18.00;74.30;;;;;;5081570;28;20108;-83
2021/06/03 01:05:44;;;;;;;4.22;1.95;;;18.00;74.70;;;;;;5082307;28;20021;-84
2021/06/03 01:08:16;;;;;;;5.30;2.08;;;17.90;75.30;;;;;;5082074;28;20021;-83
2021/06/03 01:10:44;;;;;;;;;;;17.90;75.60;;;;;;5081933;28;20020;-83
2021/06/03 01:13:33;;;;;;;12.57;2.10;;;18.00;76.60;;;;;;5081655;28;19904;-83
2021/06/03 01:16:02;;;;;;;4.18;1.95;;;17.90;77.00;;;;;;5081565;28;20102;-83
2021/06/03 01:18:33;;;;;;;6.32;2.03;;;17.90;77.40;;;;;;5081699;28;20404;-83
2021/06/03 01:21:04;;;;;;;4.57;2.10;;;17.90;78.20;;;;;;5095954;28;20048;-83
2021/06/03 01:23:38;;;;;;;4.22;2.08;;;17.80;78.70;;;;;;5081107;28;20029;-83
2021/06/03 01:26:05;;;;;;;2.78;1.63;;;17.80;79.50;;;;;;5082409;28;20044;-83
2021/06/03 01:28:32;;;;;;;6.13;1.90;;;17.70;80.40;;;;;;5081235;28;20048;-83
2021/06/03 01:30:58;;;;;;;5.20;2.00;;;17.80;81.20;;;;;;5080801;28;20021;-83
2021/06/03 01:33:27;;;;;;;4.55;1.80;;;17.70;81.90;;;;;;5079759;28;20044;-84
2021/06/03 01:35:56;;;;;;;4.80;2.25;;;17.70;82.70;;;;;;5088637;28;20035;-83
2021/06/03 01:38:29;;;;;;;3.75;1.92;;;17.70;83.00;;;;;;5086235;28;20032;-83
2021/06/03 01:40:57;;;;;;;4.50;2.42;;;17.70;83.70;;;;;;5080873;28;20062;-83
2021/06/03 01:43:25;;;;;;;4.50;1.90;;;17.60;84.30;;;;;;5084369;28;20031;-84
2021/06/03 01:45:51;;;;;;;4.78;2.13;;;17.60;84.80;;;;;;5099348;28;20110;-83
2021/06/03 01:48:19;;;;;;;5.85;2.20;;;17.60;85.10;;;;;;5101322;28;20020;-83
2021/06/03 01:50:47;;;;;;;3.95;1.80;;;17.60;85.80;;;;;;5100394;28;20017;-82
2021/06/03 01:53:14;;;;;;;4.38;2.38;;;17.60;86.60;;;;;;5095464;28;20043;-84
2021/06/03 01:55:40;;;;;;;4.03;2.05;;;17.50;87.90;;;;;;5095606;28;20028;-83
2021/06/03 01:58:06;;;;;;;3.53;1.90;;;17.50;89.50;;;;;;5095860;28;20050;-83
2021/06/03 02:00:33;;;;;;;3.15;1.95;;;17.50;90.30;;;;;;5079535;28;20544;-82
2021/06/03 02:02:59;;;;;;;3.33;1.65;;;17.60;90.50;;;;;;5079000;28;20028;-84
2021/06/03 02:05:24;;;;;;;3.92;1.98;;;17.50;90.80;;;;;;5080055;28;20020;-83
2021/06/03 02:07:51;;;;;;;3.05;1.60;;;17.50;91.00;;;;;;5080265;28;20020;-83
2021/06/03 02:10:18;;;;;;;3.53;1.80;;;17.60;91.40;;;;;;5092230;28;20395;-83
2021/06/03 02:13:13;;;;;;;6.38;1.85;;;17.60;91.50;;;;;;5078843;28;20096;-84
2021/06/03 02:15:46;;;;;;;3.55;2.00;;;17.50;91.60;;;;;;5079053;28;20025;-83
2021/06/03 02:18:13;;;;;;;4.47;1.95;;;17.60;91.80;;;;;;5080055;28;20373;-83
2021/06/03 02:20:42;;;;;;;4.65;1.83;;;17.50;92.40;;;;;;5094984;28;20029;-84
2021/06/03 02:23:10;;;;;;;3.40;1.85;;;17.50;92.70;;;;;;5080368;28;20028;-83
2021/06/03 02:25:36;;;;;;;2.63;1.70;;;17.50;93.00;;;;;;5093627;28;20041;-83
2021/06/03 02:28:03;;;;;;;4.63;1.83;;;17.50;93.20;;;;;;5081052;28;20043;-83
2021/06/03 02:30:31;;;;;;;5.43;1.90;;;17.50;93.20;;;;;;5095101;28;20165;-83
2021/06/03 02:32:59;;;;;;;3.83;1.83;;;17.40;93.40;;;;;;5080356;28;20357;-84
2021/06/03 02:35:26;;;;;;;4.00;1.95;;;17.50;93.70;;;;;;5094356;28;20122;-83
2021/06/03 02:37:52;;;;;;;3.22;1.77;;;17.40;94.10;;;;;;5080043;28;20027;-83
2021/06/03 02:40:21;;;;;;;3.70;1.98;;;17.30;94.50;;;;;;5096037;28;20020;-83
2021/06/03 02:42:48;;;;;;;3.10;1.70;;;17.30;95.00;;;;;;5081821;28;20035;-83
2021/06/03 02:45:20;;;;;;;5.55;2.00;;;17.40;95.10;;;;;;5082582;28;20065;-84
2021/06/03 02:47:46;;;;;;;3.17;2.00;;;17.40;94.90;;;;;;5095352;28;20512;-83
2021/06/03 02:50:14;;;;;;;3.47;1.83;;;17.40;94.70;;;;;;5079639;28;20020;-83
2021/06/03 02:52:40;;;;;;;4.13;1.77;;;17.50;95.00;;;;;;5096027;28;20031;-83
2021/06/03 02:55:09;;;;;;;3.97;1.90;;;17.50;95.10;;;;;;5079730;28;20099;-83
2021/06/03 02:57:35;;;;;;;4.32;2.03;;;17.50;95.10;;;;;;5078803;28;20032;-83
2021/06/03 03:00:01;;;;;;;2.97;1.63;;;17.50;95.40;;;;;;5078050;28;20451;-83
2021/06/03 03:02:26;;;;;;;4.60;1.88;;;17.50;95.40;;;;;;5078177;28;20028;-84
2021/06/03 03:04:52;;;;;;;4.45;1.83;;;17.50;96.00;;;;;;5078441;28;20044;-83
2021/06/03 03:07:17;;;;;;;4.15;1.95;;;17.40;96.20;;;;;;5078915;28;20020;-82
2021/06/03 03:09:43;;;;;;;3.90;2.10;;;17.40;96.20;;;;;;5080052;28;20373;-82
2021/06/03 03:12:10;;;;;;;4.43;2.20;;;17.30;96.60;;;;;;5080105;28;20412;-82
2021/06/03 03:14:37;;;;;;;4.50;2.10;;;17.30;96.70;;;;;;5079630;28;20025;-83
2021/06/03 03:17:04;;;;;;;3.58;2.10;;;17.30;96.70;;;;;;5080510;28;20021;-83
2021/06/03 03:19:29;;;;;;;4.47;2.15;;;17.30;96.50;;;;;;5094594;28;20096;-83
2021/06/03 03:21:55;;;;;;;4.35;2.20;;;17.20;96.60;;;;;;5081823;28;20067;-83
2021/06/03 03:24:21;;;;;;;4.20;2.00;;;17.20;97.00;;;;;;5089283;28;20032;-83
2021/06/03 03:26:47;;;;;;;4.20;2.30;;;17.20;96.90;;;;;;5090018;28;20020;-82
2021/06/03 03:29:12;;;;;;;5.35;2.08;;;17.20;97.00;;;;;;5086408;28;20036;-83
2021/06/03 03:31:38;;;;;;;4.75;2.20;;;17.30;97.80;;;;;;5083269;28;20476;-83
2021/06/03 03:34:03;;;;;;;4.63;2.30;;;17.10;98.30;;;;;;5083772;28;20059;-83
2021/06/03 03:36:30;;;;;;;3.95;2.15;;;17.20;98.50;;;;;;5083299;28;20021;-84
2021/06/03 03:38:56;;;;;;;4.97;2.30;;;17.20;98.80;;;;;;5098977;28;20042;-83
2021/06/03 03:41:22;;;;;;;4.43;2.15;;;17.20;99.20;;;;;;5093601;28;20028;-82
2021/06/03 03:43:49;;;;;;;5.32;2.15;;;17.30;99.60;;;;;;5093671;28;20033;-82
2021/06/03 03:46:14;;;;;;;4.55;2.33;;;17.30;99.30;;;;;;5078357;28;20056;-83
2021/06/03 03:48:40;;;;;;;6.30;2.40;;;17.30;99.70;;;;;;5076497;28;20047;-82
2021/06/03 03:51:05;;;;;;;7.40;2.50;;;17.40;99.60;;;;;;5077518;28;20434;-83
2021/06/03 03:53:31;;;;;;;4.25;2.72;;;17.40;99.90;;;;;;5076768;28;20039;-82
2021/06/03 03:55:57;;;;;;;4.45;2.05;;;17.40;99.90;;;;;;5078121;28;20029;-83
2021/06/03 03:58:22;;;;;;;4.03;2.00;;;17.50;99.90;;;;;;5078939;28;20103;-82
2021/06/03 04:00:48;;;;;;;5.18;2.10;;;17.50;99.90;;;;;;5094931;28;20056;-83
2021/06/03 04:03:13;;;;;;;4.93;2.40;;;17.60;99.90;;;;;;5079451;28;20029;-83
2021/06/03 04:05:39;;;;;;;4.40;2.33;;;17.60;99.90;;;;;;5079538;28;20055;-83
2021/06/03 04:08:05;;;;;;;4.25;1.88;;;17.60;99.90;;;;;;5078643;28;20020;-83
2021/06/03 04:10:31;;;;;;;3.20;1.80;;;17.60;99.90;;;;;;5095258;28;20028;-82
2021/06/03 04:12:56;;;;;;;5.40;2.20;;;17.60;99.90;;;;;;5080709;28;20043;-82
2021/06/03 04:15:22;;;;;;;3.80;1.90;;;17.60;99.90;;;;;;5087997;28;20397;-83
2021/06/03 04:17:49;;;;;;;3.47;2.10;;;17.70;99.90;;;;;;5079726;28;20483;-83
2021/06/03 04:20:19;;;;;;;4.53;2.00;;;17.70;99.90;;;;;;5097270;28;20028;-84
2021/06/03 04:22:46;;;;;;;3.70;1.75;;;17.70;99.90;;;;;;5096316;28;20099;-83
2021/06/03 04:25:12;;;;;;;5.75;2.08;;;17.70;99.90;;;;;;5086892;28;20025;-82
2021/06/03 04:27:39;;;;;;;3.90;2.20;;;17.70;99.90;;;;;;5080664;28;20041;-82
2021/06/03 04:30:12;;;;;;;3.15;1.80;;;17.70;99.90;;;;;;5082116;28;20047;-82
2021/06/03 04:32:38;;;;;;;3.63;1.85;;;17.70;99.90;;;;;;5101006;28;20318;-83
2021/06/03 04:35:05;;;;;;;4.15;2.10;;;17.70;99.90;;;;;;5100429;28;20048;-82
2021/06/03 04:37:30;;;;;;;5.05;1.95;;;17.70;99.90;;;;;;5102322;28;20496;-83
2021/06/03 04:39:56;;;;;;;4.00;2.08;;;17.60;99.90;;;;;;5095051;28;20032;-83
2021/06/03 04:42:21;;;;;;;4.32;2.08;;;17.60;99.90;;;;;;5082237;28;20056;-83
2021/06/03 04:44:47;;;;;;;5.20;2.45;;;17.50;99.90;;;;;;5080797;28;20029;-83
2021/06/03 04:47:13;;;;;;;4.45;2.20;;;17.50;99.90;;;;;;5083041;28;20032;-83
2021/06/03 04:49:39;;;;;;;4.88;2.13;;;17.50;99.90;;;;;;5096943;28;20122;-82
2021/06/03 04:52:38;;;;;;;3.80;2.22;;;17.50;99.90;;;;;;5102174;28;20016;-83
2021/06/03 04:55:00;;;;;;;4.15;2.28;;;17.50;99.90;;;;;;5098622;28;20059;-82
2021/06/03 04:57:27;;;;;;;3.97;2.42;;;17.60;99.90;;;;;;5095981;28;20029;-83
2021/06/03 04:59:52;;;;;;;3.78;2.20;;;17.60;99.90;;;;;;5079204;28;20035;-83
2021/06/03 05:02:20;;;;;;;3.55;2.17;;;17.60;99.90;;;;;;5080205;28;20025;-83
2021/06/03 05:04:47;;;;;;;4.70;2.50;;;17.60;99.90;;;;;;5081418;28;20042;-82
2021/06/03 05:07:12;;;;;;;4.90;2.40;;;17.70;99.90;;;;;;5092556;28;20028;-83
2021/06/03 05:09:38;;;;;;;4.80;2.60;;;17.60;99.90;;;;;;5075708;28;20025;-82
2021/06/03 05:12:05;;;;;;;5.28;2.78;;;17.60;99.90;;;;;;5075583;28;20484;-83
2021/06/03 05:14:31;;;;;;;4.20;2.40;;;17.50;99.90;;;;;;5074905;28;20422;-83
2021/06/03 05:16:58;;;;;;;4.50;2.47;;;17.30;99.90;;;;;;5076427;28;20020;-83
2021/06/03 05:19:24;;;;;;;4.88;2.67;;;17.30;99.90;;;;;;5076162;28;20016;-84
2021/06/03 05:21:49;;;;;;;4.68;2.58;;;17.40;99.90;;;;;;5075790;28;20034;-83
2021/06/03 05:24:15;;;;;;;5.10;2.33;;;17.50;99.90;;;;;;5089143;28;20009;-84
2021/06/03 05:26:41;;;;;;;4.15;2.60;;;17.60;99.90;;;;;;5076074;28;20036;-84
2021/06/03 05:29:07;;;;;;;4.07;2.60;;;17.70;99.90;;;;;;5074795;28;20028;-84
2021/06/03 05:31:33;;;;;;;4.50;2.47;;;17.80;99.90;;;;;;5078806;28;20020;-83
2021/06/03 05:33:58;;;;;;;4.13;2.47;;;17.80;99.90;;;;;;5076194;28;20054;-82
2021/06/03 05:36:24;;;;;;;3.95;2.35;;;17.90;99.90;;;;;;5077551;28;20020;-85
2021/06/03 05:38:49;;;;;;;4.40;2.60;;;18.00;99.90;;;;;;5076066;28;20027;-83
2021/06/03 05:41:15;;;;;;;4.32;2.78;;;18.20;99.90;;;;;;5076628;28;20050;-83
2021/06/03 05:43:42;;;;;;;3.85;2.30;;;18.30;99.90;;;;;;5076695;28;20041;-83
2021/06/03 05:46:07;;;;;;;6.38;2.47;;;18.50;99.90;;;;;;5075190;28;20561;-84
2021/06/03 05:48:33;;;;;;;5.85;2.13;;;18.80;99.90;;;;;;5074759;28;20032;-83
2021/06/03 05:50:58;;;;;;;5.70;2.35;;;18.90;99.90;;;;;;5074854;28;20380;-84
2021/06/03 05:53:24;;;;;;;5.53;2.50;;;19.10;99.90;;;;;;5072442;28;20027;-84
2021/06/03 05:55:50;;;;;;;4.13;1.92;;;19.40;99.90;;;;;;5091320;22;20012;-79
2021/06/03 05:58:15;;;;;;;3.85;2.40;;;19.50;99.90;;;;;;5072405;28;20033;-80
2021/06/03 06:00:41;;;;;;;5.50;2.33;;;19.50;99.90;;;;;;5055254;28;20020;-80
2021/06/03 06:03:18;;;;;;;3.72;2.17;;;19.20;99.90;;;;;;5080365;28;20085;-81
2021/06/03 06:08:28;;;;;;;4.72;2.50;;;19.10;99.90;;;;;;5099639;28;20024;-80
2021/06/03 06:10:53;;;;;;;6.28;2.47;;;19.00;99.90;;;;;;5098073;28;20027;-79
2021/06/03 06:13:21;;;;;;;6.60;2.42;;;18.80;99.90;;;;;;5094754;28;20050;-81
2021/06/03 06:15:47;;;;;;;4.65;2.25;;;18.80;99.90;;;;;;5079103;28;20681;-81
2021/06/03 06:18:13;;;;;;;3.78;2.17;;;18.80;99.90;;;;;;5074241;28;20350;-81
2021/06/03 06:20:39;;;;;;;4.95;2.15;;;18.70;99.90;;;;;;5085270;28;20028;-81
2021/06/03 06:23:06;;;;;;;4.22;2.05;;;18.70;99.90;;;;;;5092891;28;20048;-81
2021/06/03 06:25:31;;;;;;;4.15;2.00;;;18.70;99.90;;;;;;5075939;28;20028;-81
2021/06/03 06:27:58;;;;;;;3.97;2.10;;;18.60;99.90;;;;;;5094257;28;20454;-81
2021/06/03 06:30:25;;;;;;;4.05;2.42;;;18.60;99.90;;;;;;5072718;28;20407;-81
2021/06/03 06:32:51;;;;;;;3.20;1.85;;;18.60;99.90;;;;;;5073978;28;20107;-81
2021/06/03 06:35:17;;;;;;;4.68;2.03;;;18.70;99.90;;;;;;5072109;28;20055;-81
2021/06/03 06:37:43;;;;;;;4.63;2.35;;;18.70;99.90;;;;;;5074684;28;20050;-81
2021/06/03 06:40:09;;;;;;;4.55;2.28;;;18.70;99.90;;;;;;5073982;28;20028;-81
2021/06/03 06:42:35;;;;;;;4.18;2.10;;;18.80;99.90;;;;;;5073756;28;20067;-81
2021/06/03 06:45:03;;;;;;;6.80;2.17;;;18.70;99.90;;;;;;5055340;28;20476;-81
2021/06/03 06:47:29;;;;;;;4.70;2.30;;;18.80;99.90;;;;;;5073093;28;20141;-81
2021/06/03 06:49:55;;;;;;;5.95;2.38;;;18.80;99.90;;;;;;5054955;28;20077;-80
2021/06/03 06:52:21;;;;;;;4.72;2.60;;;18.70;99.90;;;;;;5073709;28;20032;-80
2021/06/03 06:54:47;;;;;;;6.10;2.22;;;18.60;99.90;;;;;;5073132;28;20024;-79
2021/06/03 06:57:13;;;;;;;5.22;2.75;;;18.50;99.90;;;;;;5054974;28;20133;-80
2021/06/03 06:59:38;;;;;;;3.90;2.03;;;18.50;99.90;;;;;;5055322;28;20051;-80
2021/06/03 07:02:04;;;;;;;4.20;2.53;;;18.60;99.90;;;;;;5054745;28;20480;-81
2021/06/03 07:04:30;;;;;;;3.53;2.13;;;18.60;99.90;;;;;;5072565;28;20033;-81
2021/06/03 07:06:55;;;;;;;5.40;2.47;;;18.70;99.90;;;;;;5073033;28;20025;-81
2021/06/03 07:09:21;;;;;;;3.80;2.45;;;18.80;99.90;;;;;;5072930;28;20023;-79
2021/06/03 07:11:46;;;;;;;5.25;3.03;;;19.00;99.90;;;;;;5074826;28;20058;-80
2021/06/03 07:14:12;;;;;;;4.47;2.53;;;19.10;99.90;;;;;;5078414;28;20440;-81
2021/06/03 07:16:37;;;;;;;4.30;2.33;;;19.10;99.90;;;;;;5072701;28;20025;-81
2021/06/03 07:19:03;;;;;;;4.72;2.47;;;19.30;99.90;;;;;;5072821;28;20047;-78
2021/06/03 07:21:30;;;;;;;4.60;2.17;;;19.30;99.90;;;;;;5083511;28;20065;-79
2021/06/03 07:23:56;;;;;;;4.93;3.00;;;19.50;99.90;;;;;;5092048;28;20066;-80
2021/06/03 07:26:23;;;;;;;5.90;2.65;;;19.60;99.90;;;;;;5092806;28;20426;-80
2021/06/03 07:28:50;;;;;;;5.25;2.53;;;19.80;99.90;;;;;;5058336;28;20029;-79
2021/06/03 07:31:16;;;;;;;4.38;2.47;;;20.00;99.90;;;;;;5072331;28;20104;-79
2021/06/03 07:33:42;;;;;;;4.00;2.13;;;20.20;99.90;;;;;;5071677;28;20044;-81
2021/06/03 07:36:08;;;;;;;6.93;2.55;;;20.10;99.90;;;;;;5070387;28;20373;-81
2021/06/03 07:38:35;;;;;;;3.20;2.00;;;20.00;99.90;;;;;;5072694;28;20033;-81
2021/06/03 07:41:01;;;;;;;4.60;2.17;;;20.00;99.90;;;;;;5072836;28;20056;-81
2021/06/03 07:43:27;;;;;;;3.80;2.20;;;20.20;99.90;;;;;;5072870;28;20099;-79
2021/06/03 07:45:55;;;;;;;4.20;1.95;;;20.50;99.90;;;;;;5069792;28;20484;-82
2021/06/03 07:48:21;;;;;;;3.58;1.80;;;20.90;99.90;;;;;;5054516;28;20025;-81
2021/06/03 07:50:46;;;;;;;3.38;1.33;;;21.40;99.90;;;;;;5072720;28;20040;-80
2021/06/03 07:53:12;;;;;;;4.78;1.80;;;21.70;99.90;;;;;;5072735;28;20123;-79
2021/06/03 07:55:38;;;;;;;2.72;1.50;;;21.80;99.90;;;;;;5072454;28;20032;-81
2021/06/03 07:58:08;;;;;;;3.13;1.42;;;22.20;99.90;;;;;;5072701;28;20446;-81
2021/06/03 08:00:36;;;;;;;2.83;1.58;;;22.50;99.80;;;;;;5072419;28;20028;-81
2021/06/03 08:03:03;;;;;;;3.20;1.33;;;22.80;99.80;;;;;;5054901;28;20033;-81
2021/06/03 08:05:29;;;;;;;3.67;1.48;;;23.00;98.80;;;;;;5072838;28;20017;-81
2021/06/03 08:07:56;;;;;;;3.20;1.23;;;23.20;98.40;;;;;;5075019;28;20043;-81
2021/06/03 08:10:26;;;;;;;3.35;1.20;;;23.40;97.60;;;;;;5076208;28;20088;-81
2021/06/03 08:12:54;;;;;;;2.15;1.00;;;23.50;97.20;;;;;;5078224;28;20031;-82
2021/06/03 08:15:21;;;;;;;2.85;1.00;;;23.70;96.00;;;;;;5096036;28;20020;-82
2021/06/03 08:17:47;;;;;;;1.95;1.00;;;23.80;95.70;;;;;;5096597;28;20039;-80
2021/06/03 08:20:16;;;;;;;3.33;1.55;;;23.70;96.20;;;;;;5081286;28;20020;-81
2021/06/03 08:22:42;;;;;;;2.63;1.33;;;23.50;96.40;;;;;;5063275;28;20142;-82
2021/06/03 08:25:09;;;;;;;2.33;1.27;;;23.30;96.70;;;;;;5096086;28;20024;-82
2021/06/03 08:27:35;;;;;;;3.38;1.23;;;23.10;97.50;;;;;;5075790;28;20047;-81
2021/06/03 08:30:01;;;;;;;3.42;1.50;;;23.10;97.50;;;;;;5076234;28;20024;-82
2021/06/03 08:32:26;;;;;;;2.78;1.17;;;23.40;97.70;;;;;;5057723;28;20115;-82
2021/06/03 08:34:52;;;;;;;4.03;1.60;;;23.40;97.40;;;;;;5075602;28;20059;-82
2021/06/03 08:37:18;;;;;;;2.67;1.40;;;23.70;96.90;;;;;;5076703;28;20040;-82
2021/06/03 08:39:44;;;;;;;3.33;1.45;;;23.90;96.00;;;;;;5075678;28;20463;-81
2021/06/03 08:42:12;;;;;;;3.55;1.50;;;23.90;95.70;;;;;;5075440;28;20033;-81
2021/06/03 08:44:38;;;;;;;2.63;1.60;;;24.10;96.00;;;;;;5076743;28;20073;-82
2021/06/03 08:47:04;;;;;;;4.28;1.60;;;23.90;95.40;;;;;;5076144;28;20477;-82
2021/06/03 08:49:30;;;;;;;4.03;1.55;;;23.80;96.10;;;;;;5074734;28;20031;-82
2021/06/03 08:52:02;;;;;;;2.85;1.58;;;23.70;95.70;;;;;;5075575;28;20029;-80
2021/06/03 08:54:31;;;;;;;4.13;1.30;;;23.70;95.40;;;;;;5073410;28;20058;-81
2021/06/03 08:56:57;;;;;;;3.78;1.45;;;23.60;95.30;;;;;;5057406;28;20032;-82
2021/06/03 08:59:22;;;;;;;4.03;1.50;;;23.70;95.40;;;;;;5075352;28;20032;-82
2021/06/03 09:01:48;;;;;;;2.95;1.35;;;23.90;95.10;;;;;;5078606;28;20025;-82
2021/06/03 09:04:14;;;;;;;2.85;1.65;;;24.00;94.90;;;;;;5079272;28;20036;-81
2021/06/03 09:06:39;;;;;;;2.65;1.20;;;24.30;94.60;;;;;;5063955;28;20365;-82
2021/06/03 09:09:07;;;;;;;2.38;1.10;;;24.60;94.00;;;;;;5080796;28;20044;-81
2021/06/03 09:11:34;;;;;;;4.18;1.20;;;24.90;93.00;;;;;;5085178;28;20093;-82
2021/06/03 09:14:04;;;;;;;2.65;1.40;;;25.00;92.50;;;;;;5095013;28;20393;-82
2021/06/03 09:16:32;;;;;;;2.92;1.15;;;25.40;91.80;;;;;;5077512;28;20024;-82
2021/06/03 09:19:05;;;;;;;3.20;1.10;;;25.50;90.80;;;;;;5072619;28;20028;-82
2021/06/03 09:21:39;;;;;;;2.92;1.10;;;25.30;90.20;;;;;;5077231;28;20047;-80
2021/06/03 09:24:12;;;;;;;2.78;1.00;;;25.50;89.50;;;;;;5077023;28;20024;-81
2021/06/03 09:26:49;;;;;;;3.58;1.10;;;25.90;90.40;;;;;;5077765;28;20111;-81
2021/06/03 09:29:24;;;;;;;2.88;1.10;;;25.90;88.00;;;;;;5076443;28;20112;-83
2021/06/03 09:31:51;;;;;;;2.35;0.95;;;26.00;86.90;;;;;;5076061;28;20021;-81
2021/06/03 09:34:22;;;;;;;3.38;1.20;;;25.90;85.40;;;;;;5057050;28;20032;-82
2021/06/03 09:36:59;;;;;;;2.17;1.10;;;26.20;86.60;;;;;;5076420;28;20463;-81
2021/06/03 09:39:30;;;;;;;2.60;0.93;;;26.40;84.70;;;;;;5076456;28;20074;-80
2021/06/03 09:42:07;;;;;;;;;;;26.40;83.60;;;;;;5076868;28;20020;-83
2021/06/03 09:44:38;;;;;;;2.78;0.90;;;26.30;83.40;;;;;;5075527;28;19948;-82
2021/06/03 09:47:05;;;;;;;3.10;1.00;;;26.40;85.60;;;;;;5073716;28;20071;-81
2021/06/03 09:49:34;;;;;;;2.33;1.05;;;26.20;83.60;;;;;;5075955;28;20092;-82
2021/06/03 09:52:06;;;;;;;3.05;1.00;;;26.00;83.40;;;;;;5076577;28;20039;-83
2021/06/03 09:54:33;;;;;;;3.08;1.15;;;26.50;83.60;;;;;;5073796;28;20033;-82
2021/06/03 09:57:05;;;;;;;2.50;0.95;;;26.50;80.70;;;;;;5059097;28;20032;-82
2021/06/03 09:59:36;;;;;;;2.17;0.90;;;26.50;81.60;;;;;;5075852;28;20093;-81
2021/06/03 10:02:09;;;;;;;3.00;1.33;;;26.40;80.40;;;;;;5091806;28;20032;-79
2021/06/03 10:04:52;;;;;;;4.70;0.80;;;26.60;80.40;;;;;;5083348;28;20080;-82
2021/06/03 10:07:23;;;;;;;2.45;0.98;;;26.60;81.30;;;;;;5058379;28;20051;-80
2021/06/03 10:09:56;;;;;;;;;;;27.00;81.90;;;;;;5057674;28;20020;-82
2021/06/03 10:12:25;;;;;;;4.18;0.77;;;26.70;77.10;;;;;;5079910;28;19916;-82
2021/06/03 10:14:58;;;;;;;2.00;0.88;;;26.90;77.60;;;;;;5074045;28;20052;-82
2021/06/03 10:17:35;;;;;;;1.10;0.60;;;27.20;77.10;;;;;;5057255;28;20477;-80
2021/06/03 10:20:09;;;;;;;1.88;0.80;;;27.50;75.30;;;;;;5075825;28;20020;-81
2021/06/03 10:22:37;;;;;;;2.08;0.50;;;27.70;72.70;;;;;;5095952;28;20372;-83
2021/06/03 10:25:12;;;;;;;1.83;0.70;;;27.40;72.00;;;;;;5075845;28;20476;-81
2021/06/03 10:27:43;;;;;;;1.58;0.60;;;27.50;73.50;;;;;;5094093;28;20026;-82
2021/06/03 10:30:12;;;;;;;1.58;0.60;;;27.40;71.40;;;;;;5077455;28;20032;-83
2021/06/03 10:32:39;;;;;;;2.22;0.80;;;27.50;73.30;;;;;;5055851;28;20078;-82
2021/06/03 10:35:08;;;;;;;1.08;0.60;;;27.10;72.70;;;;;;5073636;28;20365;-82
2021/06/03 10:37:35;;;;;;;2.22;0.80;;;27.20;74.10;;;;;;5073074;28;20120;-81
2021/06/03 10:40:03;;;;;;;1.77;0.73;;;27.40;72.90;;;;;;5074032;28;20027;-83
2021/06/03 10:42:29;;;;;;;3.53;0.73;;;27.70;72.00;;;;;;5074176;28;20032;-82
2021/06/03 10:44:54;;;;;;;1.25;0.43;;;28.00;71.00;;;;;;5073863;28;20027;-82
2021/06/03 10:47:20;;;;;;;1.90;0.70;;;27.80;68.40;;;;;;5073934;28;20029;-83
2021/06/03 10:49:47;;;;;;;3.58;0.80;;;27.90;69.30;;;;;;5073114;28;20501;-83
2021/06/03 10:52:16;;;;;;;1.83;0.60;;;27.50;69.70;;;;;;5073512;28;20112;-81
2021/06/03 10:54:48;;;;;;;1.48;0.70;;;27.60;70.60;;;;;;5072092;28;20017;-83
2021/06/03 10:57:16;;;;;;;2.85;0.75;;;27.70;69.90;;;;;;5072537;28;20064;-83
2021/06/03 10:59:43;;;;;;;3.17;0.75;;;27.90;68.50;;;;;;5072522;28;20031;-82
2021/06/03 11:02:09;;;;;;;2.97;0.70;;;28.30;68.40;;;;;;5072399;28;20031;-81
2021/06/03 11:04:37;;;;;;;2.22;0.70;;;28.00;68.00;;;;;;5071459;28;20032;-83
2021/06/03 11:07:05;;;;;;;2.33;0.70;;;28.30;66.20;;;;;;5072349;28;20020;-81
2021/06/03 11:09:34;;;;;;;1.60;0.75;;;28.60;65.80;;;;;;5072856;28;20052;-82
2021/06/03 11:12:16;;;;;;;2.33;0.68;;;29.00;64.80;;;;;;5061513;28;20035;-84
2021/06/03 11:15:04;;;;;;;1.75;0.70;;;29.30;63.70;;;;;;5072636;28;20017;-83
2021/06/03 11:18:08;;;;;;;2.03;0.80;;;29.90;64.70;;;;;;5054963;28;20028;-82
2021/06/03 11:20:45;;;;;;;2.33;0.70;;;29.70;64.00;;;;;;5010106;28;20022;-81
2021/06/03 11:23:35;;;;;;;1.88;0.80;;;29.60;63.10;;;;;;5000248;28;20026;-83
2021/06/03 11:26:05;;;;;;;1.97;0.70;;;30.20;64.40;;;;;;5069107;28;20071;-83
2021/06/03 11:28:31;;;;;;;2.78;1.20;;;30.50;64.10;;;;;;5066003;28;20435;-83
2021/06/03 11:31:21;;;;;;;2.35;0.60;;;30.10;64.00;;;;;;5072777;28;20067;-84
2021/06/03 11:34:06;;;;;;;3.03;0.95;;;30.10;64.40;;;;;;5074582;28;20033;-82
2021/06/03 11:36:32;;;;;;;2.20;0.70;;;30.20;63.50;;;;;;5075509;28;20020;-83
2021/06/03 11:38:58;;;;;;;1.75;0.82;;;30.20;63.30;;;;;;5073958;28;20480;-83
2021/06/03 11:41:35;;;;;;;1.67;0.75;;;29.10;62.90;;;;;;5073317;28;20027;-83
2021/06/03 11:44:13;;;;;;;1.35;0.60;;;28.80;64.50;;;;;;5076389;28;20021;-83
2021/06/03 11:46:50;;;;;;;2.20;0.80;;;28.30;64.90;;;;;;5077709;28;20021;-83
2021/06/03 11:49:35;;;;;;;2.47;1.20;;;28.30;66.60;;;;;;5060683;28;20020;-82
2021/06/03 11:52:10;;;;;;;1.80;0.70;;;29.00;65.80;;;;;;5077374;28;20077;-84
2021/06/03 11:54:54;;;;;;;1.60;0.70;;;29.60;63.70;;;;;;5078082;28;20028;-83
2021/06/03 11:57:21;;;;;;;3.00;0.80;;;29.90;62.30;;;;;;5078367;28;20036;-84
2021/06/03 11:59:56;;;;;;;2.83;0.70;;;29.80;61.80;;;;;;5091323;22;20102;-84
2021/06/03 12:02:33;;;;;;;1.00;0.40;;;29.70;63.10;;;;;;5072135;28;20055;-84
2021/06/03 12:05:13;;;;;;;2.03;0.73;;;28.90;65.50;;;;;;5071302;28;20033;-83
2021/06/03 12:07:53;;;;;;;2.95;0.73;;;28.40;67.30;;;;;;5073857;28;20047;-84
2021/06/03 12:10:42;;;;;;;2.58;1.20;;;27.80;68.70;;;;;;5055583;28;20507;-84
2021/06/03 12:13:18;;;;;;;2.47;1.13;;;26.90;70.80;;;;;;5044494;28;20119;-84
2021/06/03 12:15:43;;;;;;;2.35;0.90;;;26.60;72.00;;;;;;5040654;28;20021;-84
2021/06/03 12:18:09;;;;;;;1.58;0.70;;;26.40;72.80;;;;;;5062590;28;20036;-84
2021/06/03 12:20:35;;;;;;;2.10;0.68;;;26.20;73.50;;;;;;5037200;28;20025;-84
2021/06/03 12:23:05;;;;;;;3.70;1.02;;;26.00;74.30;;;;;;5037620;28;20052;-84
2021/06/03 12:25:40;;;;;;;5.57;1.58;;;25.70;79.50;;;;;;5054806;28;20029;-83
2021/06/03 12:28:09;;;;;;;7.20;1.98;;;25.40;90.20;;;;;;5037778;28;20029;-85
2021/06/03 12:30:36;;;;;;;3.47;1.20;;;24.40;94.10;;;;;;5037581;28;20500;-84
2021/06/03 12:33:14;;;;;;;4.30;1.80;;;23.20;98.10;;;;;;5042178;28;20021;-83
2021/06/03 12:35:48;;;;;;;3.45;1.35;;;23.00;99.90;;;;;;5075536;28;20032;-84
2021/06/03 12:38:41;;;;;;;3.10;1.17;;;22.80;99.90;;;;;;5076333;28;20024;-84
2021/06/03 12:41:22;;;;;;;3.85;1.25;;;22.80;99.90;;;;;;5075699;28;20028;-84
2021/06/03 12:44:09;;;;;;;3.80;1.90;;;22.90;99.90;;;;;;5056630;28;20433;-83
2021/06/03 12:46:45;;;;;;;3.47;1.20;;;22.90;99.90;;;;;;5055641;28;20028;-83
2021/06/03 12:49:19;;;;;;;4.03;1.08;;;22.70;99.90;;;;;;5054489;28;20488;-83
2021/06/03 12:52:08;;;;;;;2.03;0.80;;;22.40;99.90;;;;;;5055720;28;20029;-82
2021/06/03 12:54:45;;;;;;;3.08;1.30;;;22.30;99.90;;;;;;5036526;28;20023;-83
2021/06/03 12:57:17;;;;;;;3.92;0.98;;;22.30;99.90;;;;;;5037264;28;20024;-83
2021/06/03 12:59:45;;;;;;;1.98;1.10;;;22.30;99.90;;;;;;5037277;28;20511;-83